Time;durP1;ratioP1;P1;durP2;ratioP2;P2;SDS_P1;SDS_P2;PMS_P1;PMS_P2;Temp;Humidity;BMP_temperature;BMP_pressure;BME280_temperature;BME280_humidity;BME280_pressure;Samples;Min_cycle;Max_cycle;Signal;HPM_P1;HPM_P2
2022/04/09 00:01:16;;;;;;;3.83;3.53;;;9.10;94.90;;;;;;5073912;28;20239;-66
2022/04/09 00:03:43;;;;;;;3.78;3.47;;;9.10;94.90;;;;;;5063773;28;20697;-66
2022/04/09 00:06:11;;;;;;;4.90;3.95;;;9.10;95.00;;;;;;5073025;28;20247;-66
2022/04/09 00:08:38;;;;;;;9.68;4.40;;;9.10;95.00;;;;;;5064814;28;20232;-66
2022/04/09 00:11:08;;;;;;;5.68;5.05;;;9.10;95.10;;;;;;5063912;28;20235;-66
2022/04/09 00:13:35;;;;;;;4.75;3.75;;;9.00;95.10;;;;;;5068486;28;20232;-66
2022/04/09 00:16:02;;;;;;;4.30;3.90;;;9.00;95.10;;;;;;5073770;28;20231;-66
2022/04/09 00:18:29;;;;;;;4.38;3.97;;;9.00;95.20;;;;;;5073127;28;20220;-66
2022/04/09 00:20:56;;;;;;;6.05;3.95;;;9.00;95.30;;;;;;5068743;28;20228;-66
2022/04/09 00:23:24;;;;;;;11.35;4.25;;;9.00;95.50;;;;;;5063640;28;20630;-66
2022/04/09 00:25:51;;;;;;;5.60;5.10;;;8.90;95.50;;;;;;5073200;28;20662;-66
2022/04/09 00:28:22;;;;;;;11.88;8.23;;;8.90;95.50;;;;;;5066055;28;20693;-66
2022/04/09 00:30:49;;;;;;;8.25;6.90;;;8.90;95.50;;;;;;5072786;28;20224;-66
2022/04/09 00:33:16;;;;;;;5.55;4.72;;;8.80;95.50;;;;;;5073277;28;20604;-66
2022/04/09 00:35:42;;;;;;;4.30;3.90;;;8.80;95.60;;;;;;5071674;28;20231;-67
2022/04/09 00:38:09;;;;;;;4.40;4.00;;;8.80;95.60;;;;;;5066655;28;20677;-67
2022/04/09 00:40:38;;;;;;;6.28;4.22;;;8.80;95.80;;;;;;5067652;28;20225;-67
2022/04/09 00:43:05;;;;;;;7.43;3.50;;;8.80;95.80;;;;;;5072325;28;20231;-66
2022/04/09 00:45:32;;;;;;;4.95;3.78;;;8.80;95.70;;;;;;5066382;28;20573;-66
2022/04/09 00:47:59;;;;;;;4.78;3.67;;;8.80;95.80;;;;;;5073296;28;20226;-66
2022/04/09 00:50:26;;;;;;;5.18;3.65;;;8.70;95.80;;;;;;5066956;28;20239;-68
2022/04/09 00:52:58;;;;;;;6.13;4.05;;;8.80;95.90;;;;;;5072339;28;20220;-67
2022/04/09 00:58:12;;;;;;;5.78;3.83;;;8.70;96.00;;;;;;5067802;28;20201;-66
2022/04/09 01:00:40;;;;;;;7.57;6.88;;;8.70;96.00;;;;;;5065238;28;20236;-65
2022/04/09 01:03:07;;;;;;;5.38;3.90;;;8.70;96.10;;;;;;5060010;28;20594;-67
2022/04/09 01:05:35;;;;;;;9.75;8.18;;;8.70;96.10;;;;;;5064667;28;20235;-66
2022/04/09 01:08:04;;;;;;;10.90;6.63;;;8.60;96.40;;;;;;5072613;28;20228;-66
2022/04/09 01:10:31;;;;;;;8.55;5.80;;;8.60;96.00;;;;;;5072029;28;20228;-67
2022/04/09 01:13:00;;;;;;;5.25;4.10;;;8.60;96.10;;;;;;5072880;28;20228;-66
2022/04/09 01:15:28;;;;;;;6.32;4.60;;;8.60;96.10;;;;;;5072189;28;20234;-68
2022/04/09 01:17:55;;;;;;;7.15;5.55;;;8.60;96.10;;;;;;5072829;28;20235;-66
2022/04/09 01:20:24;;;;;;;4.50;4.10;;;8.60;96.10;;;;;;5060347;28;20236;-66
2022/04/09 01:22:53;;;;;;;13.07;7.95;;;8.60;96.10;;;;;;5059853;28;20220;-66
2022/04/09 01:25:20;;;;;;;6.45;3.60;;;8.50;96.20;;;;;;5064700;28;20303;-66
2022/04/09 01:27:48;;;;;;;7.32;3.95;;;8.50;96.20;;;;;;5068116;28;20225;-66
2022/04/09 01:30:18;;;;;;;7.78;5.45;;;8.50;96.10;;;;;;5061866;28;20255;-66
2022/04/09 01:32:45;;;;;;;6.72;5.22;;;8.50;96.10;;;;;;5064093;28;20216;-67
2022/04/09 01:35:11;;;;;;;5.18;3.50;;;8.50;96.20;;;;;;5065201;28;20235;-66
2022/04/09 01:37:38;;;;;;;10.68;5.38;;;8.50;96.20;;;;;;5061829;28;20231;-66
2022/04/09 01:40:08;;;;;;;4.53;3.78;;;8.50;96.20;;;;;;5070901;28;20527;-66
2022/04/09 01:42:36;;;;;;;4.95;3.38;;;8.50;96.30;;;;;;5066429;28;20235;-66
2022/04/09 01:45:06;;;;;;;3.17;2.70;;;8.50;96.30;;;;;;5064130;28;20295;-66
2022/04/09 01:47:34;;;;;;;2.63;2.42;;;8.50;96.30;;;;;;5063677;28;20229;-66
2022/04/09 01:50:01;;;;;;;3.92;2.55;;;8.50;96.40;;;;;;5073178;28;20220;-66
2022/04/09 01:52:28;;;;;;;5.45;3.50;;;8.50;96.30;;;;;;5064119;28;20759;-66
2022/04/09 01:54:55;;;;;;;4.38;3.45;;;8.40;96.30;;;;;;5065793;28;20236;-66
2022/04/09 01:57:23;;;;;;;6.72;3.00;;;8.50;96.40;;;;;;5067014;28;20220;-66
2022/04/09 01:59:53;;;;;;;5.70;2.40;;;8.40;96.30;;;;;;5063569;28;20227;-65
2022/04/09 02:02:20;;;;;;;7.18;5.20;;;8.40;96.30;;;;;;5064076;28;20319;-65
2022/04/09 02:04:47;;;;;;;3.75;3.45;;;8.40;96.30;;;;;;5066842;28;20243;-65
2022/04/09 02:07:14;;;;;;;2.72;2.42;;;8.40;96.40;;;;;;5067177;28;20239;-66
2022/04/09 02:09:41;;;;;;;6.03;2.72;;;8.40;96.40;;;;;;5061915;28;20596;-66
2022/04/09 02:12:08;;;;;;;7.13;3.85;;;8.40;96.50;;;;;;5061517;28;20683;-65
2022/04/09 02:14:36;;;;;;;5.53;3.03;;;8.40;96.40;;;;;;5066161;28;20224;-66
2022/04/09 02:17:04;;;;;;;2.50;2.30;;;8.40;96.50;;;;;;5057886;28;20225;-66
2022/04/09 02:19:30;;;;;;;4.32;2.85;;;8.40;96.50;;;;;;5070506;28;20216;-66
2022/04/09 02:21:57;;;;;;;4.20;2.65;;;8.40;96.60;;;;;;5070707;28;20665;-65
2022/04/09 02:24:24;;;;;;;3.97;2.85;;;8.40;96.60;;;;;;5066967;28;20224;-66
2022/04/09 02:26:51;;;;;;;7.05;2.47;;;8.40;96.70;;;;;;5057553;28;20235;-65
2022/04/09 02:29:18;;;;;;;5.05;3.53;;;8.30;96.70;;;;;;5051267;28;20240;-66
2022/04/09 02:31:47;;;;;;;3.22;2.80;;;8.30;96.70;;;;;;5050342;28;20220;-66
2022/04/09 02:34:16;;;;;;;5.75;3.60;;;8.40;96.80;;;;;;5049540;28;20225;-66
2022/04/09 02:36:44;;;;;;;10.45;7.35;;;8.30;96.80;;;;;;5049028;28;20228;-66
2022/04/09 02:39:15;;;;;;;4.80;3.58;;;8.30;96.80;;;;;;5049593;28;20300;-66
2022/04/09 02:41:43;;;;;;;4.40;3.25;;;8.30;96.90;;;;;;5049758;28;20267;-66
2022/04/09 02:44:13;;;;;;;4.75;2.80;;;8.30;96.90;;;;;;5065624;28;20224;-66
2022/04/09 02:46:42;;;;;;;4.43;2.78;;;8.30;96.90;;;;;;5071024;28;20221;-66
2022/04/09 02:49:12;;;;;;;2.67;2.40;;;8.30;96.90;;;;;;5068802;28;20225;-66
2022/04/09 02:51:42;;;;;;;5.93;2.80;;;8.20;97.00;;;;;;5051783;28;20256;-67
2022/04/09 02:54:15;;;;;;;4.07;3.15;;;8.20;97.00;;;;;;5052384;28;20225;-66
2022/04/09 02:56:45;;;;;;;4.03;3.63;;;8.20;97.10;;;;;;5051724;28;20221;-66
2022/04/09 02:59:14;;;;;;;5.35;3.25;;;8.20;97.20;;;;;;5068254;28;20250;-67
2022/04/09 03:01:45;;;;;;;6.07;2.90;;;8.10;97.20;;;;;;5074520;28;20228;-66
2022/04/09 03:04:16;;;;;;;5.63;3.95;;;8.10;97.30;;;;;;5075725;28;20593;-66
2022/04/09 03:06:45;;;;;;;4.05;3.05;;;8.00;97.40;;;;;;5075182;28;20246;-66
2022/04/09 03:09:14;;;;;;;6.93;3.40;;;8.00;97.50;;;;;;5075492;28;20224;-66
2022/04/09 03:11:42;;;;;;;3.03;2.42;;;7.90;97.60;;;;;;5075250;28;20286;-66
2022/04/09 03:14:11;;;;;;;8.95;5.13;;;7.90;97.70;;;;;;5075384;28;20236;-66
2022/04/09 03:16:39;;;;;;;4.10;3.35;;;7.90;97.80;;;;;;5074882;28;20554;-66
2022/04/09 03:19:08;;;;;;;5.53;3.10;;;7.90;97.90;;;;;;5075267;28;20243;-66
2022/04/09 03:21:38;;;;;;;4.85;3.65;;;7.90;98.00;;;;;;5074908;28;20258;-66
2022/04/09 03:24:06;;;;;;;6.65;4.38;;;7.80;98.00;;;;;;5064327;28;20247;-66
2022/04/09 03:26:37;;;;;;;4.85;3.60;;;7.80;98.10;;;;;;5056996;28;20225;-67
2022/04/09 03:29:05;;;;;;;5.63;3.40;;;7.80;98.20;;;;;;5075379;28;20674;-66
2022/04/09 03:31:32;;;;;;;4.80;3.47;;;7.80;98.30;;;;;;5074626;28;20236;-66
2022/04/09 03:34:01;;;;;;;4.90;3.67;;;7.70;98.40;;;;;;5075187;28;20236;-66
2022/04/09 03:36:30;;;;;;;4.93;3.88;;;7.70;98.40;;;;;;5075016;28;20224;-66
2022/04/09 03:39:00;;;;;;;8.25;6.03;;;7.70;98.50;;;;;;5074538;28;20619;-66
2022/04/09 03:41:29;;;;;;;6.03;4.30;;;7.60;98.60;;;;;;5075070;28;20243;-67
2022/04/09 03:43:58;;;;;;;4.25;3.22;;;7.60;98.70;;;;;;5074612;28;20239;-67
2022/04/09 03:46:28;;;;;;;4.75;2.95;;;7.60;98.90;;;;;;5074729;28;20258;-66
2022/04/09 03:48:57;;;;;;;3.88;3.10;;;7.60;98.90;;;;;;5057099;28;20221;-66
2022/04/09 03:51:25;;;;;;;3.35;3.05;;;7.60;99.00;;;;;;5055014;28;20315;-65
2022/04/09 03:53:54;;;;;;;8.93;4.85;;;7.60;99.00;;;;;;5056560;28;20236;-66
2022/04/09 03:56:24;;;;;;;7.10;3.38;;;7.50;99.10;;;;;;5074818;28;20227;-66
2022/04/09 03:58:53;;;;;;;3.53;2.95;;;7.50;99.10;;;;;;5074211;28;20220;-66
2022/04/09 04:01:24;;;;;;;6.38;3.67;;;7.50;99.10;;;;;;5074501;28;20239;-65
2022/04/09 04:03:53;;;;;;;7.18;3.22;;;7.50;99.20;;;;;;5074170;28;20398;-65
2022/04/09 04:06:20;;;;;;;5.53;3.30;;;7.50;99.40;;;;;;5074162;28;20225;-65
2022/04/09 04:08:49;;;;;;;7.25;3.47;;;7.50;99.40;;;;;;5073068;28;20682;-66
2022/04/09 04:11:17;;;;;;;11.68;6.63;;;7.50;99.50;;;;;;5073782;28;20240;-66
2022/04/09 04:13:48;;;;;;;4.35;3.17;;;7.50;99.60;;;;;;5073762;28;20266;-66
2022/04/09 04:16:18;;;;;;;3.60;3.30;;;7.50;99.60;;;;;;5074192;28;20228;-66
2022/04/09 04:18:46;;;;;;;3.63;3.33;;;7.40;99.70;;;;;;5073819;28;20248;-67
2022/04/09 04:21:15;;;;;;;7.57;3.92;;;7.50;99.70;;;;;;5074038;28;20232;-67
2022/04/09 04:23:43;;;;;;;5.95;3.85;;;7.40;99.70;;;;;;5073589;28;20289;-66
2022/04/09 04:26:12;;;;;;;5.95;3.15;;;7.40;99.90;;;;;;5057493;28;20308;-67
2022/04/09 04:28:41;;;;;;;5.78;3.05;;;7.40;99.90;;;;;;5053564;28;20225;-66
2022/04/09 04:31:11;;;;;;;5.35;3.20;;;7.40;99.90;;;;;;5054101;28;20594;-66
2022/04/09 04:33:40;;;;;;;6.90;3.53;;;7.40;99.90;;;;;;5053594;28;20254;-67
2022/04/09 04:36:09;;;;;;;6.35;3.83;;;7.50;99.90;;;;;;5053833;28;20299;-66
2022/04/09 04:38:38;;;;;;;3.22;3.00;;;7.50;99.90;;;;;;5054021;28;20227;-67
2022/04/09 04:41:07;;;;;;;3.33;3.03;;;7.50;99.90;;;;;;5053235;28;20652;-65
2022/04/09 04:43:36;;;;;;;5.38;3.50;;;7.50;99.90;;;;;;5053713;28;20566;-66
2022/04/09 04:46:04;;;;;;;8.25;4.60;;;7.50;99.90;;;;;;5053425;28;20220;-66
2022/04/09 04:48:34;;;;;;;6.45;3.55;;;7.40;99.80;;;;;;5053565;28;20225;-66
2022/04/09 04:51:04;;;;;;;8.10;4.50;;;7.40;99.90;;;;;;5071729;28;20698;-66
2022/04/09 04:53:33;;;;;;;6.07;5.10;;;7.40;99.90;;;;;;5061293;28;20670;-66
2022/04/09 04:56:04;;;;;;;5.45;3.92;;;7.40;99.90;;;;;;5053053;28;20687;-66
2022/04/09 04:58:32;;;;;;;3.58;2.95;;;7.40;99.90;;;;;;5060869;28;20224;-67
2022/04/09 05:01:02;;;;;;;4.35;2.72;;;7.40;99.90;;;;;;5072681;28;20224;-65
2022/04/09 05:03:30;;;;;;;3.58;3.00;;;7.40;99.90;;;;;;5073474;28;20224;-65
2022/04/09 05:06:01;;;;;;;11.85;6.57;;;7.40;99.90;;;;;;5072854;28;20232;-65
2022/04/09 05:08:29;;;;;;;7.57;4.53;;;7.30;99.90;;;;;;5073218;28;20243;-65
2022/04/09 05:10:56;;;;;;;4.18;3.53;;;7.40;99.90;;;;;;5070096;28;20615;-65
2022/04/09 05:13:23;;;;;;;5.13;3.47;;;7.40;99.90;;;;;;5056532;28;20224;-65
2022/04/09 05:15:50;;;;;;;4.07;2.63;;;7.30;99.90;;;;;;5072878;28;20224;-65
2022/04/09 05:18:19;;;;;;;4.32;3.38;;;7.40;99.90;;;;;;5073119;28;20234;-65
2022/04/09 05:20:49;;;;;;;9.13;4.18;;;7.40;99.90;;;;;;5072505;28;20224;-65
2022/04/09 05:23:18;;;;;;;7.90;3.38;;;7.40;99.90;;;;;;5063736;28;20248;-65
2022/04/09 05:25:46;;;;;;;3.88;3.08;;;7.40;99.90;;;;;;5058707;28;20294;-66
2022/04/09 05:28:13;;;;;;;5.28;3.28;;;7.40;99.90;;;;;;5052868;28;20740;-65
2022/04/09 05:30:46;;;;;;;3.90;3.25;;;7.40;99.90;;;;;;5053019;28;20233;-65
2022/04/09 05:33:14;;;;;;;6.70;3.78;;;7.40;99.90;;;;;;5052738;28;20227;-65
2022/04/09 05:35:42;;;;;;;5.47;4.35;;;7.40;99.90;;;;;;5052778;28;20304;-66
2022/04/09 05:38:11;;;;;;;11.43;4.65;;;7.40;99.90;;;;;;5052318;28;20691;-66
2022/04/09 05:40:42;;;;;;;9.52;3.88;;;7.40;99.90;;;;;;5054792;28;20248;-66
2022/04/09 05:43:11;;;;;;;9.15;4.80;;;7.50;99.90;;;;;;5072336;28;20620;-66
2022/04/09 05:45:40;;;;;;;3.63;3.33;;;7.50;99.90;;;;;;5072334;28;20227;-66
2022/04/09 05:48:13;;;;;;;5.75;3.60;;;7.50;99.90;;;;;;5072159;28;20654;-66
2022/04/09 05:50:42;;;;;;;5.25;3.45;;;7.50;99.90;;;;;;5073023;28;20224;-66
2022/04/09 05:53:09;;;;;;;3.42;2.58;;;7.50;99.90;;;;;;5072371;28;20304;-66
2022/04/09 05:55:36;;;;;;;8.75;3.50;;;7.50;99.90;;;;;;5072709;28;20224;-66
2022/04/09 05:58:05;;;;;;;6.18;3.55;;;7.50;99.90;;;;;;5072466;28;20212;-66
2022/04/09 06:00:34;;;;;;;6.30;4.10;;;7.60;99.90;;;;;;5072194;28;20308;-66
2022/04/09 06:03:03;;;;;;;5.25;3.70;;;7.60;99.90;;;;;;5072157;28;20220;-66
2022/04/09 06:05:32;;;;;;;9.48;3.90;;;7.70;99.90;;;;;;5072192;28;20215;-66
2022/04/09 06:08:01;;;;;;;4.75;3.17;;;7.80;99.90;;;;;;5071860;28;20307;-66
2022/04/09 06:10:30;;;;;;;8.05;3.08;;;7.80;99.90;;;;;;5052642;28;20295;-66
2022/04/09 06:12:57;;;;;;;5.40;2.95;;;7.90;99.90;;;;;;5052075;28;20255;-66
2022/04/09 06:15:26;;;;;;;14.52;8.90;;;8.00;99.90;;;;;;5052691;28;20236;-66
2022/04/09 06:17:54;;;;;;;7.32;3.95;;;8.10;99.90;;;;;;5063301;28;20358;-66
2022/04/09 06:20:23;;;;;;;4.55;3.13;;;8.20;99.90;;;;;;5072655;28;20220;-66
2022/04/09 06:22:51;;;;;;;7.55;3.83;;;8.20;99.70;;;;;;5072325;28;20227;-66
2022/04/09 06:25:20;;;;;;;16.23;9.35;;;8.30;99.50;;;;;;5062778;28;20225;-66
2022/04/09 06:27:48;;;;;;;6.03;3.75;;;8.40;99.40;;;;;;5052323;28;20232;-66
2022/04/09 06:30:17;;;;;;;8.30;3.78;;;8.40;99.30;;;;;;5051779;28;20264;-66
2022/04/09 06:32:52;;;;;;;11.75;3.90;;;8.50;99.20;;;;;;5053865;28;20225;-66
2022/04/09 06:35:20;;;;;;;5.10;3.10;;;8.40;98.90;;;;;;5056294;28;20295;-66
2022/04/09 06:37:49;;;;;;;4.88;3.85;;;8.50;98.90;;;;;;5056095;28;20220;-66
2022/04/09 06:40:17;;;;;;;4.93;3.58;;;8.50;98.80;;;;;;5055774;28;20254;-66
2022/04/09 06:42:46;;;;;;;3.63;3.22;;;8.50;98.80;;;;;;5056153;28;20235;-66
2022/04/09 06:45:14;;;;;;;5.80;4.05;;;8.50;98.70;;;;;;5055639;28;20228;-66
2022/04/09 06:47:43;;;;;;;8.85;4.38;;;8.50;98.70;;;;;;5055953;28;20271;-66
2022/04/09 06:50:14;;;;;;;7.72;4.45;;;8.50;98.60;;;;;;5055562;28;20299;-65
2022/04/09 06:52:42;;;;;;;6.75;4.75;;;8.60;98.70;;;;;;5056175;28;20292;-66
2022/04/09 06:55:10;;;;;;;7.18;4.90;;;8.70;98.60;;;;;;5055435;28;20237;-67
2022/04/09 06:57:38;;;;;;;5.88;4.47;;;8.70;98.50;;;;;;5055913;28;20270;-66
2022/04/09 07:00:11;;;;;;;6.13;4.22;;;8.70;98.40;;;;;;5055324;28;20239;-66
2022/04/09 07:02:39;;;;;;;5.15;4.03;;;8.80;98.20;;;;;;5055687;28;20746;-66
2022/04/09 07:05:08;;;;;;;11.63;4.53;;;8.80;97.80;;;;;;5055335;28;20221;-66
2022/04/09 07:07:37;;;;;;;7.63;4.03;;;8.80;97.60;;;;;;5055649;28;20243;-65
2022/04/09 07:10:08;;;;;;;4.53;3.50;;;8.80;97.50;;;;;;5055276;28;20217;-66
2022/04/09 07:12:36;;;;;;;10.88;5.80;;;8.90;97.40;;;;;;5089530;28;20223;-66
2022/04/09 07:15:03;;;;;;;7.95;5.88;;;8.90;97.30;;;;;;5094363;28;20294;-66
2022/04/09 07:17:30;;;;;;;11.63;4.93;;;8.90;97.30;;;;;;5094706;28;20219;-67
2022/04/09 07:19:58;;;;;;;10.65;5.30;;;9.00;97.20;;;;;;5075978;28;20219;-66
2022/04/09 07:22:26;;;;;;;8.00;5.13;;;9.10;97.00;;;;;;5075140;28;20224;-65
2022/04/09 07:24:55;;;;;;;12.20;5.82;;;9.20;97.00;;;;;;5069012;28;20244;-66
2022/04/09 07:27:22;;;;;;;9.30;4.32;;;9.20;96.90;;;;;;5053110;28;20217;-66
2022/04/09 07:29:49;;;;;;;8.27;4.18;;;9.30;96.90;;;;;;5053729;28;20232;-65
2022/04/09 07:32:16;;;;;;;6.75;4.03;;;9.30;96.40;;;;;;5053051;28;20228;-65
2022/04/09 07:34:43;;;;;;;7.45;4.35;;;9.30;96.30;;;;;;5053540;28;20220;-65
2022/04/09 07:37:10;;;;;;;6.45;3.40;;;9.30;96.30;;;;;;5053191;28;20252;-65
2022/04/09 07:39:37;;;;;;;6.20;3.50;;;9.40;96.30;;;;;;5053401;28;20228;-66
2022/04/09 07:42:06;;;;;;;11.52;3.85;;;9.40;96.30;;;;;;5054285;28;20687;-66
2022/04/09 07:44:32;;;;;;;18.75;12.32;;;9.50;96.10;;;;;;5055126;28;20221;-65
2022/04/09 07:46:59;;;;;;;10.73;5.63;;;9.60;96.10;;;;;;5054956;28;20243;-67
2022/04/09 07:49:26;;;;;;;8.73;4.00;;;9.60;96.00;;;;;;5059672;28;20234;-66
2022/04/09 07:51:54;;;;;;;7.22;3.20;;;9.60;95.70;;;;;;5074771;28;20220;-66
2022/04/09 07:54:21;;;;;;;5.22;3.45;;;9.60;95.80;;;;;;5065690;28;20220;-66
2022/04/09 07:56:47;;;;;;;9.68;5.75;;;9.70;95.60;;;;;;5054962;28;20221;-65
2022/04/09 07:59:16;;;;;;;11.40;4.15;;;9.70;95.50;;;;;;5067587;28;20694;-66
2022/04/09 08:01:43;;;;;;;10.38;5.82;;;9.80;95.40;;;;;;5074175;28;20220;-66
2022/04/09 08:04:09;;;;;;;7.05;4.10;;;9.90;95.30;;;;;;5074286;28;20223;-65
2022/04/09 08:06:36;;;;;;;10.38;4.55;;;9.90;94.80;;;;;;5074840;28;20701;-66
2022/04/09 08:09:03;;;;;;;13.90;8.80;;;9.90;94.50;;;;;;5057532;28;20225;-66
2022/04/09 08:11:30;;;;;;;5.90;4.43;;;9.90;94.40;;;;;;5054224;28;20221;-66
2022/04/09 08:13:57;;;;;;;19.77;11.23;;;10.00;93.80;;;;;;5054515;28;20224;-65
2022/04/09 08:16:25;;;;;;;8.43;3.70;;;10.10;93.60;;;;;;5053943;28;20221;-67
2022/04/09 08:18:52;;;;;;;5.70;3.75;;;10.00;93.00;;;;;;5054407;28;20765;-66
2022/04/09 08:21:19;;;;;;;10.82;6.35;;;10.10;93.20;;;;;;5053885;28;20260;-66
2022/04/09 08:23:47;;;;;;;11.60;5.82;;;10.10;92.70;;;;;;5054307;28;20221;-66
2022/04/09 08:26:14;;;;;;;13.10;7.78;;;10.20;92.70;;;;;;5070489;28;20281;-66
2022/04/09 08:28:41;;;;;;;4.13;3.45;;;10.20;92.10;;;;;;5074144;28;20228;-66
2022/04/09 08:31:08;;;;;;;3.80;2.42;;;10.30;91.90;;;;;;5060107;28;20228;-65
2022/04/09 08:33:36;;;;;;;6.45;3.25;;;10.30;91.80;;;;;;5054095;28;20244;-67
2022/04/09 08:36:03;;;;;;;5.55;2.95;;;10.40;91.30;;;;;;5054179;28;20217;-66
2022/04/09 08:38:30;;;;;;;8.55;4.63;;;10.40;91.20;;;;;;5053611;28;20220;-65
2022/04/09 08:41:00;;;;;;;4.97;3.00;;;10.40;91.10;;;;;;5053880;28;20228;-65
2022/04/09 08:43:27;;;;;;;13.77;6.70;;;10.50;91.00;;;;;;5053279;28;20221;-66
2022/04/09 08:45:54;;;;;;;6.20;4.03;;;10.50;90.70;;;;;;5054161;28;20566;-66
2022/04/09 08:48:22;;;;;;;8.85;4.25;;;10.60;90.70;;;;;;5053167;28;20229;-66
2022/04/09 08:50:52;;;;;;;7.43;4.75;;;10.70;90.60;;;;;;5066979;28;20255;-66
2022/04/09 08:53:19;;;;;;;8.18;5.00;;;10.80;90.40;;;;;;5073255;28;20220;-65
2022/04/09 08:55:47;;;;;;;6.63;4.30;;;10.80;89.70;;;;;;5073149;28;20235;-66
2022/04/09 08:58:15;;;;;;;5.68;3.75;;;10.90;89.70;;;;;;5072987;28;20654;-66
2022/04/09 09:00:45;;;;;;;9.38;5.20;;;10.90;88.80;;;;;;5073607;28;20228;-65
2022/04/09 09:03:15;;;;;;;10.20;4.32;;;11.00;88.40;;;;;;5073029;28;20228;-66
2022/04/09 09:05:44;;;;;;;6.90;5.68;;;11.00;87.30;;;;;;5073425;28;20228;-66
2022/04/09 09:08:13;;;;;;;7.85;3.58;;;11.10;87.00;;;;;;5072908;28;20224;-66
2022/04/09 09:10:41;;;;;;;5.75;3.22;;;11.10;86.50;;;;;;5073186;28;20224;-67
2022/04/09 09:13:10;;;;;;;8.93;3.75;;;11.10;86.20;;;;;;5072878;28;20293;-66
2022/04/09 09:15:47;;;;;;;7.95;2.90;;;11.10;85.20;;;;;;5073206;28;20630;-66
2022/04/09 09:18:21;;;;;;;10.63;4.13;;;11.20;85.50;;;;;;5072898;28;20647;-66
2022/04/09 09:20:53;;;;;;;7.18;4.78;;;11.20;84.30;;;;;;5073087;28;20294;-66
2022/04/09 09:23:25;;;;;;;4.60;4.00;;;11.30;83.20;;;;;;5072615;28;20223;-67
2022/04/09 09:25:53;;;;;;;5.60;4.05;;;11.30;81.30;;;;;;5059321;28;20561;-66
2022/04/09 09:28:25;;;;;;;5.22;3.95;;;11.40;80.80;;;;;;5052588;28;20224;-66
2022/04/09 09:30:52;;;;;;;9.88;6.13;;;11.30;78.90;;;;;;5053133;28;20279;-66
2022/04/09 09:33:20;;;;;;;10.27;4.40;;;11.30;79.50;;;;;;5052396;28;20221;-66
2022/04/09 09:35:51;;;;;;;5.57;4.35;;;11.40;79.70;;;;;;5053105;28;20216;-66
2022/04/09 09:38:24;;;;;;;7.88;4.25;;;11.50;79.20;;;;;;5052396;28;20228;-66
2022/04/09 09:40:52;;;;;;;5.43;3.88;;;11.60;79.10;;;;;;5052892;28;20224;-67
2022/04/09 09:43:20;;;;;;;6.68;3.50;;;11.70;78.30;;;;;;5052497;28;20597;-65
2022/04/09 09:45:48;;;;;;;6.20;3.45;;;11.80;77.80;;;;;;5052924;28;20232;-65
2022/04/09 09:48:23;;;;;;;6.05;4.72;;;11.90;78.10;;;;;;5052222;28;20614;-65
2022/04/09 09:50:50;;;;;;;7.13;3.60;;;12.00;77.70;;;;;;5052725;28;20224;-66
2022/04/09 09:53:26;;;;;;;8.82;4.88;;;12.10;77.20;;;;;;5052471;28;20225;-67
2022/04/09 09:55:54;;;;;;;3.08;2.63;;;12.10;75.60;;;;;;5052649;28;20235;-66
2022/04/09 09:58:23;;;;;;;7.80;4.45;;;12.20;75.60;;;;;;5058242;28;20561;-66
2022/04/09 10:00:50;;;;;;;8.30;4.78;;;12.30;76.00;;;;;;5072893;28;20305;-66
2022/04/09 10:03:19;;;;;;;6.05;3.25;;;12.30;75.00;;;;;;5072270;28;20228;-65
2022/04/09 10:05:48;;;;;;;4.72;3.20;;;12.40;74.40;;;;;;5072712;28;20558;-65
2022/04/09 10:08:15;;;;;;;6.10;4.43;;;12.40;73.90;;;;;;5075196;28;20231;-66
2022/04/09 10:10:46;;;;;;;4.93;3.20;;;12.50;73.70;;;;;;5076511;28;20211;-66
2022/04/09 10:13:17;;;;;;;3.70;2.40;;;12.50;71.90;;;;;;5076686;28;20231;-66
2022/04/09 10:15:47;;;;;;;2.78;2.05;;;12.50;71.10;;;;;;5076683;28;20243;-66
2022/04/09 10:18:14;;;;;;;5.85;3.28;;;12.50;70.20;;;;;;5076672;28;20648;-64
2022/04/09 10:20:42;;;;;;;6.15;3.55;;;12.50;70.80;;;;;;5076100;28;20223;-66
2022/04/09 10:23:09;;;;;;;4.32;2.85;;;12.60;70.00;;;;;;5076642;28;20224;-66
2022/04/09 10:25:40;;;;;;;5.20;3.55;;;12.60;69.90;;;;;;5064232;28;20220;-65
2022/04/09 10:28:08;;;;;;;4.57;3.60;;;12.60;69.70;;;;;;5056410;28;20243;-66
2022/04/09 10:30:41;;;;;;;6.55;3.30;;;12.60;69.50;;;;;;5056096;28;20264;-66
2022/04/09 10:33:22;;;;;;;6.15;2.35;;;12.50;69.10;;;;;;5056399;28;20228;-66
2022/04/09 10:35:50;;;;;;;3.20;2.05;;;12.50;68.90;;;;;;5056336;28;20720;-66
2022/04/09 10:38:25;;;;;;;4.10;1.83;;;12.50;69.10;;;;;;5056205;28;20225;-66
2022/04/09 10:41:28;;;;;;;3.95;2.33;;;12.40;69.20;;;;;;5055780;28;20278;-65
2022/04/09 10:43:59;;;;;;;3.45;2.00;;;12.30;69.20;;;;;;5055847;28;20241;-66
2022/04/09 10:46:37;;;;;;;2.47;2.15;;;12.30;69.00;;;;;;5056056;28;20232;-66
2022/04/09 10:49:22;;;;;;;4.78;2.90;;;12.20;69.30;;;;;;5055886;28;20232;-65
2022/04/09 10:52:02;;;;;;;5.45;2.70;;;12.30;70.10;;;;;;5073887;28;20228;-65
2022/04/09 10:54:29;;;;;;;4.90;3.90;;;12.30;70.30;;;;;;5076131;28;20561;-65
2022/04/09 10:57:06;;;;;;;4.35;2.30;;;12.40;70.60;;;;;;5075402;28;20681;-65
2022/04/09 10:59:33;;;;;;;6.78;2.45;;;12.40;70.70;;;;;;5075769;28;20223;-66
2022/04/09 11:02:04;;;;;;;2.75;2.10;;;12.50;70.60;;;;;;5075302;28;20243;-65
2022/04/09 11:04:38;;;;;;;6.65;2.85;;;12.50;70.20;;;;;;5075847;28;20281;-66
2022/04/09 11:07:07;;;;;;;3.20;2.90;;;12.50;69.20;;;;;;5075259;28;20231;-66
2022/04/09 11:09:52;;;;;;;4.60;2.28;;;12.50;68.90;;;;;;5075556;28;20705;-66
2022/04/09 11:12:21;;;;;;;3.30;2.15;;;12.50;69.10;;;;;;5075639;28;20301;-65
2022/04/09 11:14:50;;;;;;;7.07;2.35;;;12.40;68.90;;;;;;5075536;28;21027;-65
2022/04/09 11:17:29;;;;;;;4.35;2.42;;;12.40;69.90;;;;;;5075389;28;20227;-66
2022/04/09 11:20:01;;;;;;;3.45;1.90;;;12.40;70.10;;;;;;5074781;28;20223;-66
2022/04/09 11:22:33;;;;;;;4.88;3.80;;;12.50;70.50;;;;;;5075261;28;20228;-66
2022/04/09 11:25:00;;;;;;;4.00;3.03;;;12.60;70.50;;;;;;5068498;28;20213;-66
2022/04/09 11:27:27;;;;;;;6.50;2.20;;;12.60;70.40;;;;;;5055461;28;20294;-66
2022/04/09 11:29:55;;;;;;;4.72;1.73;;;12.70;69.30;;;;;;5054629;28;20310;-65
2022/04/09 11:32:24;;;;;;;3.40;2.17;;;12.60;68.20;;;;;;5055147;28;20305;-66
2022/04/09 11:34:53;;;;;;;1.90;1.65;;;12.70;67.70;;;;;;5054861;28;20228;-66
2022/04/09 11:37:21;;;;;;;3.75;2.10;;;12.70;67.80;;;;;;5055173;28;20224;-66
2022/04/09 11:39:50;;;;;;;7.15;1.90;;;12.70;66.60;;;;;;5054835;28;20252;-66
2022/04/09 11:42:17;;;;;;;3.20;2.45;;;12.60;66.90;;;;;;5055102;28;20228;-65
2022/04/09 11:44:44;;;;;;;4.18;2.55;;;12.60;67.60;;;;;;5054429;28;20228;-65
2022/04/09 11:47:13;;;;;;;7.07;4.65;;;12.70;66.80;;;;;;5054931;28;20304;-67
2022/04/09 11:49:42;;;;;;;4.45;2.38;;;12.70;67.00;;;;;;5054360;28;20224;-65
2022/04/09 11:52:09;;;;;;;2.40;2.20;;;12.70;66.60;;;;;;5073144;28;20235;-66
2022/04/09 11:54:38;;;;;;;4.93;2.05;;;12.70;66.90;;;;;;5074841;28;20239;-64
2022/04/09 11:57:10;;;;;;;4.80;2.47;;;12.70;67.60;;;;;;5074393;28;20216;-65
2022/04/09 11:59:38;;;;;;;2.20;1.50;;;12.70;67.90;;;;;;5074644;28;20282;-67
2022/04/09 12:02:16;;;;;;;3.40;2.28;;;12.80;69.40;;;;;;5074158;28;20224;-66
2022/04/09 12:04:44;;;;;;;3.20;1.65;;;12.70;69.10;;;;;;5074348;28;20310;-66
2022/04/09 12:07:11;;;;;;;4.35;2.05;;;12.80;69.80;;;;;;5074235;28;20236;-65
2022/04/09 12:09:38;;;;;;;3.38;2.05;;;12.80;70.50;;;;;;5074578;28;20585;-65
2022/04/09 12:12:06;;;;;;;4.13;1.75;;;12.80;71.00;;;;;;5074086;28;20228;-66
2022/04/09 12:14:33;;;;;;;5.75;2.85;;;12.70;70.70;;;;;;5074289;28;20275;-65
2022/04/09 12:17:10;;;;;;;6.70;4.38;;;12.70;69.90;;;;;;5073861;28;20558;-65
2022/04/09 12:19:38;;;;;;;4.05;2.05;;;12.70;69.70;;;;;;5064264;28;20228;-66
2022/04/09 12:22:17;;;;;;;2.85;1.88;;;12.70;68.40;;;;;;5053916;28;20319;-67
2022/04/09 12:24:52;;;;;;;3.25;2.20;;;12.80;68.60;;;;;;5062487;28;20219;-67
2022/04/09 12:27:19;;;;;;;5.63;1.92;;;12.90;69.40;;;;;;5068297;28;20302;-65
2022/04/09 12:29:52;;;;;;;4.63;4.13;;;12.90;69.80;;;;;;5052804;28;20225;-66
2022/04/09 12:32:24;;;;;;;3.95;1.90;;;12.90;70.50;;;;;;5054069;28;20294;-66
2022/04/09 12:34:58;;;;;;;3.58;1.65;;;13.00;70.50;;;;;;5053629;28;20229;-66
2022/04/09 12:37:27;;;;;;;2.70;1.40;;;13.00;70.70;;;;;;5054183;28;20228;-67
2022/04/09 12:40:13;;;;;;;5.10;3.08;;;13.10;70.70;;;;;;5053754;28;20231;-66
2022/04/09 12:42:39;;;;;;;6.78;3.63;;;13.10;71.00;;;;;;5054029;28;20670;-66
2022/04/09 12:45:11;;;;;;;2.90;2.28;;;13.10;71.80;;;;;;5053394;28;20282;-66
2022/04/09 12:47:38;;;;;;;4.65;2.50;;;13.10;71.80;;;;;;5053751;28;20290;-65
2022/04/09 12:50:06;;;;;;;6.15;3.30;;;13.10;70.40;;;;;;5053314;28;20229;-65
2022/04/09 12:52:34;;;;;;;5.90;2.97;;;13.10;68.30;;;;;;5053654;28;20304;-66
2022/04/09 12:55:01;;;;;;;4.75;3.25;;;13.00;68.80;;;;;;5053243;28;20228;-66
2022/04/09 12:57:29;;;;;;;5.25;3.90;;;13.00;68.60;;;;;;5053648;28;20225;-66
2022/04/09 12:59:56;;;;;;;7.35;2.55;;;13.00;69.80;;;;;;5071965;28;20227;-66
2022/04/09 13:02:23;;;;;;;6.43;1.92;;;12.90;71.30;;;;;;5073516;28;20811;-67
2022/04/09 13:04:50;;;;;;;5.03;3.63;;;12.90;71.90;;;;;;5053577;28;20225;-66